createdAt,value
2017-10-22T10:06:00.448Z,1008.28
2017-10-22T10:07:09.295Z,1008.33
2017-10-22T10:08:18.143Z,1008.33
2017-10-22T10:09:27.340Z,1008.27
2017-10-22T10:10:36.190Z,1008.3
2017-10-22T10:11:45.286Z,1008.31
2017-10-22T10:12:54.142Z,1008.34
2017-10-22T10:14:02.987Z,1008.36
2017-10-22T10:15:11.847Z,1008.31
2017-10-22T10:16:20.684Z,1008.25
2017-10-22T10:17:29.682Z,1008.34
2017-10-22T10:18:38.529Z,1008.33
2017-10-22T10:19:47.722Z,1008.34
2017-10-22T10:20:56.572Z,1008.28
2017-10-22T10:22:05.419Z,1008.32
2017-10-22T10:23:14.469Z,1008.27
2017-10-22T10:24:23.315Z,1008.31
2017-10-22T10:25:32.162Z,1008.29
2017-10-22T10:26:41.007Z,1008.26
2017-10-22T10:27:49.853Z,1008.27
2017-10-22T10:28:58.702Z,1008.26
2017-10-22T10:30:07.554Z,1008.31
2017-10-22T10:31:16.401Z,1008.27
2017-10-22T10:32:25.247Z,1008.27
2017-10-22T10:33:34.396Z,1008.29
2017-10-22T10:34:43.251Z,1008.31
2017-10-22T10:35:52.536Z,1008.3
2017-10-22T10:37:01.388Z,1008.3
2017-10-22T10:38:10.606Z,1008.24
2017-10-22T10:39:19.455Z,1008.31
2017-10-22T10:40:28.304Z,1008.3
2017-10-22T10:41:37.151Z,1008.24
2017-10-22T10:42:45.999Z,1008.25
2017-10-22T10:43:54.848Z,1008.24
2017-10-22T10:45:03.699Z,1008.22
2017-10-22T10:46:12.553Z,1008.26
2017-10-22T10:47:21.408Z,1008.3
2017-10-22T10:48:30.603Z,1008.34
2017-10-22T10:49:39.471Z,1008.27
2017-10-22T10:50:48.343Z,1008.3
2017-10-22T10:51:57.196Z,1008.29
2017-10-22T10:53:06.262Z,1008.3
2017-10-22T10:54:15.542Z,1008.26
2017-10-22T10:55:24.390Z,1008.3
2017-10-22T10:56:33.237Z,1008.26
2017-10-22T10:57:42.092Z,1008.33
2017-10-22T10:58:50.939Z,1008.33
2017-10-22T10:59:59.939Z,1008.29
2017-10-22T11:01:08.838Z,1008.34
2017-10-22T11:02:17.687Z,1008.31
2017-10-22T11:03:26.539Z,1008.31
2017-10-22T11:04:35.387Z,1008.34
2017-10-22T11:05:44.384Z,1008.31
2017-10-22T11:06:53.238Z,1008.28
2017-10-22T11:08:02.089Z,1008.36
2017-10-22T11:09:10.940Z,1008.36
2017-10-22T11:10:19.790Z,1008.32
2017-10-22T11:11:28.641Z,1008.36
2017-10-22T11:12:37.487Z,1008.36
2017-10-22T11:13:46.339Z,1008.38
2017-10-22T11:14:55.187Z,1008.36
2017-10-22T11:16:04.040Z,1008.36
2017-10-22T11:17:13.191Z,1008.35
2017-10-22T11:18:22.043Z,1008.36
2017-10-22T11:19:30.915Z,1008.35
2017-10-22T11:20:39.741Z,1008.38
2017-10-22T11:21:48.589Z,1008.39
2017-10-22T11:22:57.588Z,1008.39
2017-10-22T11:24:06.440Z,1008.4
2017-10-22T11:25:15.287Z,1008.41
2017-10-22T11:26:24.136Z,1008.33
2017-10-22T11:27:32.988Z,1008.35
2017-10-22T11:28:42.139Z,1008.34
2017-10-22T11:29:50.991Z,1008.38
2017-10-22T11:30:59.843Z,1008.37
2017-10-22T11:32:08.692Z,1008.34
2017-10-22T11:33:17.546Z,1008.34
2017-10-22T11:34:26.700Z,1008.32
2017-10-22T11:35:35.546Z,1008.38
2017-10-22T11:36:44.398Z,1008.37
2017-10-22T11:37:53.245Z,1008.39
2017-10-22T11:39:02.093Z,1008.4
2017-10-22T11:40:11.145Z,1008.39
2017-10-22T11:41:19.998Z,1008.43
2017-10-22T11:42:28.851Z,1008.38
2017-10-22T11:43:37.702Z,1008.42
2017-10-22T11:44:47.258Z,1008.45
2017-10-22T11:45:56.262Z,1008.41
2017-10-22T11:47:05.114Z,1008.43
2017-10-22T11:48:13.964Z,1008.42
2017-10-22T11:49:22.816Z,1008.46
2017-10-22T11:50:31.666Z,1008.45
2017-10-22T11:51:40.815Z,1008.42
2017-10-22T11:52:49.668Z,1008.4
2017-10-22T11:53:58.539Z,1008.45
2017-10-22T11:55:07.390Z,1008.39
2017-10-22T11:56:16.242Z,1008.44
2017-10-22T11:57:25.393Z,1008.49
2017-10-22T11:58:34.251Z,1008.46
2017-10-22T11:59:43.458Z,1008.45
2017-10-22T12:00:52.299Z,1008.46
2017-10-22T12:02:01.151Z,1008.42
2017-10-22T12:03:10.053Z,1008.45
2017-10-22T12:04:18.923Z,1008.46
2017-10-22T12:05:27.850Z,1008.44
2017-10-22T12:06:36.699Z,1008.48
2017-10-22T12:07:45.895Z,1008.53
2017-10-22T12:08:54.921Z,1008.49
2017-10-22T12:10:03.771Z,1008.5
2017-10-22T12:11:12.620Z,1008.52
2017-10-22T12:12:21.472Z,1008.58
2017-10-22T12:13:30.327Z,1008.58
2017-10-22T12:14:39.408Z,1008.59
2017-10-22T12:15:48.602Z,1008.53
2017-10-22T12:16:57.454Z,1008.55
2017-10-22T12:18:06.302Z,1008.55
2017-10-22T12:19:15.161Z,1008.61
2017-10-22T12:20:24.161Z,1008.57
2017-10-22T12:21:33.008Z,1008.57
2017-10-22T12:22:41.859Z,1008.54
2017-10-22T12:23:50.709Z,1008.59
2017-10-22T12:24:59.560Z,1008.58
2017-10-22T12:26:08.463Z,1008.59
2017-10-22T12:27:17.318Z,1008.55
2017-10-22T12:28:26.167Z,1008.58
2017-10-22T12:29:35.018Z,1008.57
2017-10-22T12:30:43.874Z,1008.53
2017-10-22T12:31:52.872Z,1008.57
2017-10-22T12:33:01.728Z,1008.56
2017-10-22T12:34:10.578Z,1008.52
2017-10-22T12:35:19.432Z,1008.57
2017-10-22T12:36:28.276Z,1008.6
2017-10-22T12:37:37.621Z,1008.54
2017-10-22T12:38:46.469Z,1008.54
2017-10-22T12:39:55.318Z,1008.55
2017-10-22T12:41:04.172Z,1008.53
2017-10-22T12:42:13.022Z,1008.55
2017-10-22T12:43:21.982Z,1008.6
2017-10-22T12:44:30.827Z,1008.6
2017-10-22T12:45:39.679Z,1008.58
2017-10-22T12:46:48.879Z,1008.59
2017-10-22T12:47:57.729Z,1008.61
2017-10-22T12:49:06.734Z,1008.58
2017-10-22T12:50:15.576Z,1008.63
2017-10-22T12:51:24.426Z,1008.56
2017-10-22T12:52:33.276Z,1008.57
2017-10-22T12:53:42.126Z,1008.6
2017-10-22T12:54:51.078Z,1008.61
2017-10-22T12:55:59.925Z,1008.57
2017-10-22T12:57:08.782Z,1008.57
2017-10-22T12:58:17.635Z,1008.56
2017-10-22T12:59:26.486Z,1008.6
2017-10-22T13:00:35.439Z,1008.61
2017-10-22T13:01:44.293Z,1008.6
2017-10-22T13:02:53.147Z,1008.58
2017-10-22T13:04:02.000Z,1008.56
2017-10-22T13:05:10.852Z,1008.63
2017-10-22T13:06:19.803Z,1008.62
2017-10-22T13:07:28.732Z,1008.66
2017-10-22T13:08:37.582Z,1008.62
2017-10-22T13:09:46.791Z,1008.68
2017-10-22T13:10:55.992Z,1008.66
2017-10-22T13:12:04.842Z,1008.73
2017-10-22T13:13:13.692Z,1008.71
2017-10-22T13:14:22.542Z,1008.71
2017-10-22T13:15:31.391Z,1008.77
2017-10-22T13:16:40.241Z,1008.76
2017-10-22T13:17:49.244Z,1008.84
2017-10-22T13:18:58.095Z,1008.76
2017-10-22T13:20:06.950Z,1008.76
2017-10-22T13:21:15.800Z,1008.75
2017-10-22T13:22:24.652Z,1008.74
2017-10-22T13:23:33.806Z,1008.74
2017-10-22T13:24:42.655Z,1008.72
2017-10-22T13:25:51.503Z,1008.7
2017-10-22T13:27:00.356Z,1008.78
2017-10-22T13:28:09.216Z,1008.72
2017-10-22T13:29:18.261Z,1008.74
2017-10-22T13:30:27.112Z,1008.84
2017-10-22T13:31:35.966Z,1008.82
2017-10-22T13:32:44.817Z,1008.82
2017-10-22T13:33:53.670Z,1008.86
2017-10-22T13:35:02.626Z,1008.79
2017-10-22T13:36:11.476Z,1008.87
2017-10-22T13:37:20.328Z,1008.88
2017-10-22T13:38:29.176Z,1008.86
2017-10-22T13:39:38.032Z,1008.83
2017-10-22T13:40:47.038Z,1008.91
2017-10-22T13:41:55.901Z,1008.81
2017-10-22T13:43:04.761Z,1008.92
2017-10-22T13:44:13.627Z,1008.85
2017-10-22T13:45:22.834Z,1008.84
2017-10-22T13:46:31.748Z,1008.84
2017-10-22T13:47:40.612Z,1008.86
2017-10-22T13:48:49.481Z,1008.91
2017-10-22T13:49:58.343Z,1008.87
2017-10-22T13:51:07.308Z,1008.96
2017-10-22T13:52:16.372Z,1008.93
2017-10-22T13:53:25.238Z,1008.91
2017-10-22T13:54:34.097Z,1008.97
2017-10-22T13:55:43.013Z,1008.95
2017-10-22T13:56:51.877Z,1008.97
2017-10-22T13:58:00.842Z,1008.98
2017-10-22T13:59:09.709Z,1009
2017-10-22T14:00:18.570Z,1009.02
2017-10-22T14:01:27.434Z,1008.96
2017-10-22T14:02:36.296Z,1009.01
2017-10-22T14:03:45.313Z,1009.04
2017-10-22T14:04:54.174Z,1009.06
2017-10-22T14:06:03.108Z,1009.07
2017-10-22T14:07:11.981Z,1009.12
2017-10-22T14:08:20.838Z,1009.11
2017-10-22T14:09:29.799Z,1009.08
2017-10-22T14:10:38.658Z,1009.08
2017-10-22T14:11:47.526Z,1009.05
2017-10-22T14:12:56.478Z,1009.08
2017-10-22T14:14:05.695Z,1009.07
2017-10-22T14:15:14.658Z,1009.11
2017-10-22T14:16:23.520Z,1009.1
2017-10-22T14:17:32.387Z,1009.15
2017-10-22T14:18:41.249Z,1009.22
2017-10-22T14:19:50.114Z,1009.19
2017-10-22T14:20:58.977Z,1009.22
2017-10-22T14:22:07.839Z,1009.2
2017-10-22T14:23:16.701Z,1009.25
2017-10-22T14:24:25.565Z,1009.26
2017-10-22T14:25:34.425Z,1009.29
2017-10-22T14:26:43.338Z,1009.32
2017-10-22T14:27:52.221Z,1009.33
2017-10-22T14:29:01.116Z,1009.32
2017-10-22T14:30:09.978Z,1009.35
2017-10-22T14:31:18.842Z,1009.3
2017-10-22T14:32:27.870Z,1009.38
2017-10-22T14:33:36.733Z,1009.35
2017-10-22T14:34:45.667Z,1009.33
2017-10-22T14:35:54.880Z,1009.35
2017-10-22T14:37:03.759Z,1009.37
2017-10-22T14:38:12.629Z,1009.39
2017-10-22T14:39:21.870Z,1009.39
2017-10-22T14:40:30.745Z,1009.4
2017-10-22T14:41:39.650Z,1009.41
2017-10-22T14:42:48.522Z,1009.4
2017-10-22T14:43:57.418Z,1009.35
2017-10-22T14:45:06.624Z,1009.39
2017-10-22T14:46:15.516Z,1009.36
2017-10-22T14:47:24.551Z,1009.3
2017-10-22T14:48:33.413Z,1009.41
2017-10-22T14:49:42.429Z,1009.44
2017-10-22T14:50:51.664Z,1009.44
2017-10-22T14:52:00.516Z,1009.42
2017-10-22T14:53:09.369Z,1009.45
2017-10-22T14:54:18.217Z,1009.46
2017-10-22T14:55:27.119Z,1009.49
2017-10-22T14:56:36.029Z,1009.51
2017-10-22T14:57:44.890Z,1009.54
2017-10-22T14:58:53.747Z,1009.52
2017-10-22T15:00:02.599Z,1009.57
2017-10-22T15:01:11.667Z,1009.52
2017-10-22T15:02:20.519Z,1009.57
2017-10-22T15:03:29.769Z,1009.54
2017-10-22T15:04:38.964Z,1009.55
2017-10-22T15:05:47.892Z,1009.59
2017-10-22T15:06:56.808Z,1009.62
2017-10-22T15:08:05.654Z,1009.57
2017-10-22T15:09:14.570Z,1009.58
2017-10-22T15:10:23.424Z,1009.54
2017-10-22T15:11:32.301Z,1009.51
2017-10-22T15:12:42.002Z,1009.55
2017-10-22T15:13:50.896Z,1009.55
2017-10-22T15:14:59.745Z,1009.6
2017-10-22T15:16:08.641Z,1009.62
2017-10-22T15:17:17.534Z,1009.64
2017-10-22T15:18:26.529Z,1009.66
2017-10-22T15:19:35.412Z,1009.7
2017-10-22T15:20:44.264Z,1009.68
2017-10-22T15:21:53.192Z,1009.69
2017-10-22T15:23:02.043Z,1009.72
2017-10-22T15:24:11.268Z,1009.69
2017-10-22T15:25:20.117Z,1009.72
2017-10-22T15:26:28.969Z,1009.75
2017-10-22T15:27:37.925Z,1009.75
2017-10-22T15:28:46.776Z,1009.78
2017-10-22T15:29:55.703Z,1009.81
2017-10-22T15:31:04.596Z,1009.77
2017-10-22T15:32:13.450Z,1009.78
2017-10-22T15:33:22.318Z,1009.77
2017-10-22T15:34:31.170Z,1009.79
2017-10-22T15:35:40.225Z,1009.78
2017-10-22T15:36:49.077Z,1009.8
2017-10-22T15:37:57.929Z,1009.79
2017-10-22T15:39:06.782Z,1009.79
2017-10-22T15:40:15.635Z,1009.83
2017-10-22T15:41:24.673Z,1009.8
2017-10-22T15:42:33.565Z,1009.82
2017-10-22T15:43:42.422Z,1009.83
2017-10-22T15:44:51.633Z,1009.86
2017-10-22T15:46:00.834Z,1009.89
2017-10-22T15:47:09.689Z,1009.88
2017-10-22T15:48:18.540Z,1009.88
2017-10-22T15:49:27.389Z,1009.92
2017-10-22T15:50:36.242Z,1009.91
2017-10-22T15:51:45.092Z,1009.85
2017-10-22T15:52:54.093Z,1009.86
2017-10-22T15:54:02.949Z,1009.89
2017-10-22T15:55:11.799Z,1009.91
2017-10-22T15:56:20.650Z,1009.94
2017-10-22T15:57:29.844Z,1009.93
2017-10-22T15:58:38.896Z,1009.95
2017-10-22T15:59:48.120Z,1009.94
2017-10-22T16:00:56.974Z,1009.98
2017-10-22T16:02:05.833Z,1009.99
2017-10-22T16:03:14.697Z,1009.94
2017-10-22T16:04:23.738Z,1009.99
2017-10-22T16:05:32.620Z,1009.99
2017-10-22T16:06:41.472Z,1010.03
2017-10-22T16:07:50.389Z,1010
2017-10-22T16:08:59.250Z,1010.05
2017-10-22T16:10:08.401Z,1010.03
2017-10-22T16:11:17.621Z,1010.03
2017-10-22T16:12:26.514Z,1010.05
2017-10-22T16:13:35.380Z,1010.03
2017-10-22T16:14:44.227Z,1010.06
2017-10-22T16:15:53.139Z,1010.07
2017-10-22T16:17:01.995Z,1010.09
2017-10-22T16:18:10.922Z,1010.08
2017-10-22T16:19:19.767Z,1010.13
2017-10-22T16:20:28.977Z,1010.15
2017-10-22T16:21:38.019Z,1010.17
2017-10-22T16:22:46.897Z,1010.15
2017-10-22T16:23:56.149Z,1010.18
2017-10-22T16:25:05.051Z,1010.18
2017-10-22T16:26:13.901Z,1010.18
2017-10-22T16:27:23.192Z,1010.19
2017-10-22T16:28:32.474Z,1010.25
2017-10-22T16:29:41.326Z,1010.22
2017-10-22T16:30:50.193Z,1010.27
2017-10-22T16:31:59.193Z,1010.27
2017-10-22T16:33:08.197Z,1010.29
2017-10-22T16:34:17.099Z,1010.28
2017-10-22T16:35:26.196Z,1010.3
2017-10-22T16:36:35.051Z,1010.35
2017-10-22T16:37:44.740Z,1010.37
2017-10-22T16:38:53.840Z,1010.37
2017-10-22T16:40:02.716Z,1010.36
2017-10-22T16:41:11.583Z,1010.39
2017-10-22T16:42:20.437Z,1010.4
2017-10-22T16:43:29.387Z,1010.35
2017-10-22T16:44:38.387Z,1010.4
2017-10-22T16:45:47.248Z,1010.4
2017-10-22T16:46:56.099Z,1010.53
2017-10-22T16:48:04.950Z,1010.48
2017-10-22T16:49:13.801Z,1010.48
2017-10-22T16:50:22.736Z,1010.57
2017-10-22T16:51:31.609Z,1010.53
2017-10-22T16:52:40.460Z,1010.53
2017-10-22T16:53:49.328Z,1010.57
2017-10-22T16:54:58.239Z,1010.6
2017-10-22T16:56:07.582Z,1010.61
2017-10-22T16:57:16.509Z,1010.58
2017-10-22T16:58:25.605Z,1010.58
2017-10-22T16:59:34.462Z,1010.61
2017-10-22T17:00:43.304Z,1010.65
2017-10-22T17:01:52.502Z,1010.61
2017-10-22T17:03:01.351Z,1010.59
2017-10-22T17:04:10.200Z,1010.58
2017-10-22T17:05:19.059Z,1010.59
2017-10-22T17:06:27.898Z,1010.58
2017-10-22T17:07:36.948Z,1010.61
2017-10-22T17:08:45.799Z,1010.62
2017-10-22T17:09:54.663Z,1010.59
2017-10-22T17:11:03.500Z,1010.63
2017-10-22T17:12:12.351Z,1010.57
2017-10-22T17:13:21.303Z,1010.62
2017-10-22T17:14:30.150Z,1010.61
2017-10-22T17:15:39.000Z,1010.62
2017-10-22T17:16:47.852Z,1010.61
2017-10-22T17:17:56.706Z,1010.63
2017-10-22T17:19:05.658Z,1010.61
2017-10-22T17:20:14.509Z,1010.61
2017-10-22T17:21:23.360Z,1010.63
2017-10-22T17:22:32.208Z,1010.65
2017-10-22T17:23:41.059Z,1010.63
2017-10-22T17:24:50.017Z,1010.64
2017-10-22T17:25:58.872Z,1010.62
2017-10-22T17:27:07.724Z,1010.65
2017-10-22T17:28:16.920Z,1010.7
2017-10-22T17:29:25.793Z,1010.64
2017-10-22T17:30:34.863Z,1010.67
2017-10-22T17:31:43.716Z,1010.67
2017-10-22T17:32:52.565Z,1010.69
2017-10-22T17:34:01.415Z,1010.69
2017-10-22T17:35:10.267Z,1010.73
2017-10-22T17:36:19.116Z,1010.72
2017-10-22T17:37:27.964Z,1010.79
2017-10-22T17:38:36.812Z,1010.73
2017-10-22T17:39:45.664Z,1010.78
2017-10-22T17:40:54.532Z,1010.79
2017-10-22T17:42:03.876Z,1010.78
2017-10-22T17:43:12.731Z,1010.77
2017-10-22T17:44:21.921Z,1010.8
2017-10-22T17:45:30.769Z,1010.8
2017-10-22T17:46:39.975Z,1010.84
2017-10-22T17:47:48.924Z,1010.86
2017-10-22T17:48:57.773Z,1010.85
2017-10-22T17:50:06.622Z,1010.92
2017-10-22T17:51:15.473Z,1010.9
2017-10-22T17:52:24.334Z,1010.93
2017-10-22T17:53:33.277Z,1010.95
2017-10-22T17:54:42.126Z,1010.88
2017-10-22T17:55:50.975Z,1010.91
2017-10-22T17:56:59.828Z,1011
2017-10-22T17:58:08.672Z,1010.92
2017-10-22T17:59:17.526Z,1010.95
2017-10-22T18:00:26.720Z,1010.98
2017-10-22T18:01:35.569Z,1010.94
2017-10-22T18:02:44.419Z,1010.92
2017-10-22T18:03:53.272Z,1010.96
2017-10-22T18:05:02.275Z,1010.98
2017-10-22T18:06:11.121Z,1010.98
2017-10-22T18:07:20.319Z,1010.99
2017-10-22T18:08:29.169Z,1011.02
2017-10-22T18:09:38.024Z,1010.98
2017-10-22T18:10:46.925Z,1011.01
2017-10-22T18:11:55.769Z,1011.03
2017-10-22T18:13:04.619Z,1011.03
2017-10-22T18:14:13.468Z,1011.05
2017-10-22T18:15:22.315Z,1011.01
2017-10-22T18:16:31.659Z,1011.08
2017-10-22T18:17:40.609Z,1011.07
2017-10-22T18:18:49.460Z,1011.08
2017-10-22T18:19:58.308Z,1011.09
2017-10-22T18:21:07.159Z,1011.15
2017-10-22T18:22:16.309Z,1011.11
2017-10-22T18:23:25.154Z,1011.13
2017-10-22T18:24:34.012Z,1011.11
2017-10-22T18:25:42.864Z,1011.16
2017-10-22T18:26:51.714Z,1011.1
2017-10-22T18:28:00.666Z,1011.13
2017-10-22T18:29:09.516Z,1011.13
2017-10-22T18:30:18.368Z,1011.12
2017-10-22T18:31:27.217Z,1011.11
2017-10-22T18:32:36.069Z,1011.06
2017-10-22T18:33:45.520Z,1011.15
2017-10-22T18:34:54.367Z,1011.13
2017-10-22T18:36:03.218Z,1011.11
2017-10-22T18:37:12.073Z,1011.12
2017-10-22T18:38:20.924Z,1011.09
2017-10-22T18:39:29.887Z,1011.13
2017-10-22T18:40:38.721Z,1011.13
2017-10-22T18:41:47.609Z,1011.14
2017-10-22T18:42:56.459Z,1011.17
2017-10-22T18:44:05.310Z,1011.13
2017-10-22T18:45:14.309Z,1011.14
2017-10-22T18:46:23.159Z,1011.15
2017-10-22T18:47:32.008Z,1011.14
2017-10-22T18:48:40.856Z,1011.17
2017-10-22T18:49:49.714Z,1011.17
2017-10-22T18:50:58.657Z,1011.2
2017-10-22T18:52:07.848Z,1011.21
2017-10-22T18:53:16.697Z,1011.21
2017-10-22T18:54:25.545Z,1011.19
2017-10-22T18:55:34.395Z,1011.21
2017-10-22T18:56:43.447Z,1011.25
2017-10-22T18:57:52.306Z,1011.23
2017-10-22T18:59:01.147Z,1011.21
2017-10-22T19:00:09.995Z,1011.24
2017-10-22T19:01:18.845Z,1011.26
2017-10-22T19:02:28.099Z,1011.28
2017-10-22T19:03:36.948Z,1011.29
2017-10-22T19:04:45.797Z,1011.26
2017-10-22T19:05:54.994Z,1011.23
2017-10-22T19:07:03.842Z,1011.29
2017-10-22T19:08:12.696Z,1011.25
2017-10-22T19:09:21.548Z,1011.28
2017-10-22T19:10:30.397Z,1011.26
2017-10-22T19:11:39.250Z,1011.26
2017-10-22T19:12:48.101Z,1011.33
2017-10-22T19:13:56.951Z,1011.33
2017-10-22T19:15:05.800Z,1011.33
2017-10-22T19:16:14.649Z,1011.3
2017-10-22T19:17:23.546Z,1011.29
2017-10-22T19:18:32.352Z,1011.29
2017-10-22T19:19:41.547Z,1011.3
2017-10-22T19:20:50.395Z,1011.29
2017-10-22T19:21:59.245Z,1011.29
2017-10-22T19:23:08.095Z,1011.3
2017-10-22T19:24:16.942Z,1011.3
2017-10-22T19:25:26.139Z,1011.34
2017-10-22T19:26:34.987Z,1011.28
2017-10-22T19:27:43.839Z,1011.28
2017-10-22T19:28:53.033Z,1011.34
2017-10-22T19:30:02.227Z,1011.3
2017-10-22T19:31:11.073Z,1011.32
2017-10-22T19:32:19.920Z,1011.33
2017-10-22T19:33:28.821Z,1011.32
2017-10-22T19:34:37.677Z,1011.38
2017-10-22T19:35:46.523Z,1011.4
2017-10-22T19:36:55.371Z,1011.4
2017-10-22T19:38:04.222Z,1011.36
2017-10-22T19:39:13.276Z,1011.4
2017-10-22T19:40:22.138Z,1011.4
2017-10-22T19:41:30.986Z,1011.46
2017-10-22T19:42:39.842Z,1011.41
2017-10-22T19:43:48.684Z,1011.39
2017-10-22T19:44:57.634Z,1011.43
2017-10-22T19:46:06.480Z,1011.43
2017-10-22T19:47:15.327Z,1011.44
2017-10-22T19:48:24.181Z,1011.42
2017-10-22T19:49:33.030Z,1011.43
2017-10-22T19:50:41.979Z,1011.47
2017-10-22T19:51:50.844Z,1011.46
2017-10-22T19:52:59.694Z,1011.45
2017-10-22T19:54:08.544Z,1011.45
2017-10-22T19:55:17.390Z,1011.44
2017-10-22T19:56:26.354Z,1011.48
2017-10-22T19:57:35.191Z,1011.43
2017-10-22T19:58:44.040Z,1011.48
2017-10-22T19:59:52.888Z,1011.49
2017-10-22T20:01:01.736Z,1011.49
2017-10-22T20:02:10.683Z,1011.49
2017-10-22T20:03:19.531Z,1011.52
2017-10-22T20:04:28.380Z,1011.54
2017-10-22T20:05:37.234Z,1011.53
2017-10-22T20:06:46.083Z,1011.57
2017-10-22T20:07:55.082Z,1011.58
2017-10-22T20:09:03.929Z,1011.57
2017-10-22T20:10:12.782Z,1011.61
2017-10-22T20:11:21.633Z,1011.57
2017-10-22T20:12:30.483Z,1011.59
2017-10-22T20:13:39.525Z,1011.63
2017-10-22T20:14:48.380Z,1011.59
2017-10-22T20:15:57.224Z,1011.6
2017-10-22T20:17:06.074Z,1011.57
2017-10-22T20:18:14.920Z,1011.56
2017-10-22T20:19:24.172Z,1011.56
2017-10-22T20:20:33.024Z,1011.56
2017-10-22T20:21:41.872Z,1011.58
2017-10-22T20:22:51.064Z,1011.58
2017-10-22T20:23:59.913Z,1011.59
2017-10-22T20:25:08.864Z,1011.55
2017-10-22T20:26:17.712Z,1011.63
2017-10-22T20:27:26.559Z,1011.56
2017-10-22T20:28:35.420Z,1011.58
2017-10-22T20:29:44.258Z,1011.57
2017-10-22T20:30:53.208Z,1011.58
2017-10-22T20:32:02.055Z,1011.6
2017-10-22T20:33:10.905Z,1011.54
2017-10-22T20:34:19.750Z,1011.55
2017-10-22T20:35:28.600Z,1011.54
2017-10-22T20:36:37.699Z,1011.54
2017-10-22T20:37:46.547Z,1011.55
2017-10-22T20:38:55.393Z,1011.59
2017-10-22T20:40:04.243Z,1011.59
2017-10-22T20:41:13.095Z,1011.59
2017-10-22T20:42:22.550Z,1011.6
2017-10-22T20:43:31.395Z,1011.62
2017-10-22T20:44:40.243Z,1011.59
2017-10-22T20:45:49.091Z,1011.58
2017-10-22T20:46:57.936Z,1011.54
2017-10-22T20:48:06.834Z,1011.6
2017-10-22T20:49:15.685Z,1011.61
2017-10-22T20:50:24.540Z,1011.56
2017-10-22T20:51:33.387Z,1011.64
2017-10-22T20:52:42.232Z,1011.64
2017-10-22T20:53:51.527Z,1011.68
2017-10-22T20:55:00.374Z,1011.73
2017-10-22T20:56:09.222Z,1011.7
2017-10-22T20:57:18.070Z,1011.74
2017-10-22T20:58:26.923Z,1011.74
2017-10-22T20:59:35.872Z,1011.68
2017-10-22T21:00:44.727Z,1011.75
2017-10-22T21:01:53.568Z,1011.74
2017-10-22T21:03:02.763Z,1011.77
2017-10-22T21:04:11.610Z,1011.74
2017-10-22T21:05:20.718Z,1011.76
2017-10-22T21:06:29.557Z,1011.75
2017-10-22T21:07:38.406Z,1011.73
2017-10-22T21:08:47.252Z,1011.73
2017-10-22T21:09:56.105Z,1011.76
2017-10-22T21:11:05.099Z,1011.78
2017-10-22T21:12:13.944Z,1011.75
2017-10-22T21:13:22.792Z,1011.75
2017-10-22T21:14:31.640Z,1011.77
2017-10-22T21:15:40.489Z,1011.79
2017-10-22T21:16:49.538Z,1011.78
2017-10-22T21:17:58.388Z,1011.74
2017-10-22T21:19:07.238Z,1011.77
2017-10-22T21:20:16.087Z,1011.76
2017-10-22T21:21:24.932Z,1011.79
2017-10-22T21:22:34.284Z,1011.77
2017-10-22T21:23:43.131Z,1011.8
2017-10-22T21:24:51.981Z,1011.77
2017-10-22T21:26:00.830Z,1011.75
2017-10-22T21:27:10.073Z,1011.76
2017-10-22T21:28:19.103Z,1011.73
2017-10-22T21:29:27.954Z,1011.78
2017-10-22T21:30:36.804Z,1011.82
2017-10-22T21:31:45.652Z,1011.77
2017-10-22T21:32:54.498Z,1011.72
2017-10-22T21:34:03.498Z,1011.73
2017-10-22T21:35:12.346Z,1011.73
2017-10-22T21:36:21.194Z,1011.76
2017-10-22T21:37:30.049Z,1011.76
2017-10-22T21:38:38.892Z,1011.74
2017-10-22T21:39:47.887Z,1011.79
2017-10-22T21:40:56.734Z,1011.76
2017-10-22T21:42:05.584Z,1011.82
2017-10-22T21:43:14.431Z,1011.75
2017-10-22T21:44:23.277Z,1011.8
2017-10-22T21:45:32.426Z,1011.79
2017-10-22T21:46:41.274Z,1011.79
2017-10-22T21:47:50.121Z,1011.8
2017-10-22T21:48:58.967Z,1011.86
2017-10-22T21:50:07.815Z,1011.83
2017-10-22T21:51:16.864Z,1011.82
2017-10-22T21:52:25.714Z,1011.77
2017-10-22T21:53:34.566Z,1011.78
2017-10-22T21:54:43.413Z,1011.77
2017-10-22T21:55:52.264Z,1011.78
2017-10-22T21:57:01.264Z,1011.78
2017-10-22T21:58:10.116Z,1011.81
2017-10-22T21:59:18.966Z,1011.85
2017-10-22T22:00:27.812Z,1011.84
2017-10-22T22:01:36.664Z,1011.82
2017-10-22T22:02:45.707Z,1011.87
2017-10-22T22:03:54.557Z,1011.83
2017-10-22T22:05:03.405Z,1011.82
2017-10-22T22:06:12.250Z,1011.81
2017-10-22T22:07:21.106Z,1011.86
2017-10-22T22:08:30.056Z,1011.82
2017-10-22T22:09:38.896Z,1011.8
2017-10-22T22:10:47.741Z,1011.82
2017-10-22T22:11:56.592Z,1011.83
2017-10-22T22:13:05.445Z,1011.8
2017-10-22T22:14:14.391Z,1011.86
2017-10-22T22:15:23.239Z,1011.84
2017-10-22T22:16:32.098Z,1011.85
2017-10-22T22:17:40.938Z,1011.84
2017-10-22T22:18:50.130Z,1011.86
2017-10-22T22:19:59.279Z,1011.9
2017-10-22T22:21:08.128Z,1011.9
2017-10-22T22:22:16.981Z,1011.91
2017-10-22T22:23:25.820Z,1011.86
2017-10-22T22:24:34.668Z,1011.89
2017-10-22T22:25:43.566Z,1011.95
2017-10-22T22:26:52.763Z,1011.91
2017-10-22T22:28:01.612Z,1011.9
2017-10-22T22:29:10.459Z,1011.9
2017-10-22T22:30:19.306Z,1011.97
2017-10-22T22:31:28.303Z,1011.98
2017-10-22T22:32:37.151Z,1011.96
2017-10-22T22:33:45.997Z,1011.99
2017-10-22T22:34:54.847Z,1011.98
2017-10-22T22:36:03.696Z,1011.97
2017-10-22T22:37:12.547Z,1011.96
2017-10-22T22:38:21.740Z,1011.92
2017-10-22T22:39:30.586Z,1011.98
2017-10-22T22:40:39.432Z,1011.93
2017-10-22T22:41:48.287Z,1011.96
2017-10-22T22:42:57.335Z,1011.95
2017-10-22T22:44:06.184Z,1012
2017-10-22T22:45:15.032Z,1011.95
2017-10-22T22:46:23.880Z,1011.99
2017-10-22T22:47:32.725Z,1011.97
2017-10-22T22:48:41.572Z,1011.97
2017-10-22T22:49:50.765Z,1011.91
2017-10-22T22:50:59.616Z,1011.92
2017-10-22T22:52:08.467Z,1011.96
2017-10-22T22:53:17.313Z,1011.95
2017-10-22T22:54:26.308Z,1011.95
2017-10-22T22:55:35.156Z,1011.93
2017-10-22T22:56:44.007Z,1011.92
2017-10-22T22:57:53.201Z,1011.92
2017-10-22T22:59:02.048Z,1011.92
2017-10-22T23:00:11.046Z,1011.88
2017-10-22T23:01:19.896Z,1011.91
2017-10-22T23:02:28.743Z,1011.91
2017-10-22T23:03:37.589Z,1011.92
2017-10-22T23:04:46.794Z,1011.91
2017-10-22T23:05:55.793Z,1011.88
2017-10-22T23:07:04.642Z,1011.86
2017-10-22T23:08:13.487Z,1011.91
2017-10-22T23:09:22.334Z,1011.88
2017-10-22T23:10:31.181Z,1011.89
2017-10-22T23:11:40.085Z,1011.92
2017-10-22T23:12:48.927Z,1011.91
2017-10-22T23:13:57.776Z,1011.91
2017-10-22T23:15:06.966Z,1011.91
2017-10-22T23:16:15.812Z,1011.92
2017-10-22T23:17:25.011Z,1011.87
2017-10-22T23:18:33.859Z,1011.95
2017-10-22T23:19:42.709Z,1011.85
2017-10-22T23:20:51.556Z,1011.89
2017-10-22T23:22:00.401Z,1011.92
2017-10-22T23:23:09.448Z,1011.88
2017-10-22T23:24:18.295Z,1011.86
2017-10-22T23:25:27.141Z,1011.86
2017-10-22T23:26:35.986Z,1011.88
2017-10-22T23:27:44.833Z,1011.9
2017-10-22T23:28:53.784Z,1011.89
2017-10-22T23:30:02.628Z,1011.89
2017-10-22T23:31:11.474Z,1011.91
2017-10-22T23:32:20.322Z,1011.89
2017-10-22T23:33:29.178Z,1011.9
2017-10-22T23:34:38.022Z,1011.89
2017-10-22T23:35:47.214Z,1011.91
2017-10-22T23:36:56.061Z,1011.89
2017-10-22T23:38:04.911Z,1011.83
2017-10-22T23:39:13.764Z,1011.89
2017-10-22T23:40:22.611Z,1011.91
2017-10-22T23:41:31.462Z,1011.91
2017-10-22T23:42:40.313Z,1011.88
2017-10-22T23:43:49.160Z,1011.89
2017-10-22T23:44:58.009Z,1011.9
2017-10-22T23:46:07.306Z,1011.83
2017-10-22T23:47:16.145Z,1011.87
2017-10-22T23:48:24.993Z,1011.9
2017-10-22T23:49:33.840Z,1011.82
2017-10-22T23:50:43.042Z,1011.85
2017-10-22T23:51:52.040Z,1011.86
2017-10-22T23:53:00.887Z,1011.84
2017-10-22T23:54:09.733Z,1011.88
2017-10-22T23:55:18.584Z,1011.93
2017-10-22T23:56:27.432Z,1011.9
2017-10-22T23:57:36.378Z,1011.89
2017-10-22T23:58:45.225Z,1011.88
2017-10-22T23:59:54.070Z,1011.9
